createdAt,value
2022-11-20T00:02:37.539Z,99156.47
2022-11-20T00:07:42.286Z,99151.50
2022-11-20T00:12:45.542Z,99155.94
2022-11-20T00:17:49.075Z,99160.31
2022-11-20T00:22:53.966Z,99162.53
2022-11-20T00:27:57.426Z,99153.91
2022-11-20T00:33:00.746Z,99161.88
2022-11-20T00:38:05.363Z,99162.06
2022-11-20T00:43:08.569Z,99157.69
2022-11-20T00:48:12.074Z,99150.19
2022-11-20T00:53:16.716Z,99153.50
2022-11-20T00:58:20.169Z,99163.63
2022-11-20T01:03:26.997Z,99149.56
2022-11-20T01:08:34.057Z,99149.47
2022-11-20T01:13:40.688Z,99145.09
2022-11-20T01:18:45.404Z,99142.94
2022-11-20T01:23:51.119Z,99147.75
2022-11-20T01:28:55.719Z,99152.44
2022-11-20T01:34:01.807Z,99147.81
2022-11-20T01:39:09.260Z,99164.31
2022-11-20T01:44:16.245Z,99165.09
2022-11-20T01:49:22.599Z,99158.94
2022-11-20T01:54:34.432Z,99168.44
2022-11-20T01:59:44.256Z,99183.53
2022-11-20T02:04:48.701Z,99181.00
2022-11-20T02:09:58.540Z,99174.94
2022-11-20T02:15:02.392Z,99190.22
2022-11-20T02:20:07.235Z,99193.78
2022-11-20T02:25:12.805Z,99185.06
2022-11-20T02:30:16.531Z,99195.03
2022-11-20T02:35:43.449Z,99202.38
2022-11-20T02:40:52.671Z,99199.22
2022-11-20T02:45:58.557Z,99199.63
2022-11-20T02:51:01.964Z,99205.19
2022-11-20T02:56:07.680Z,99211.00
2022-11-20T03:01:11.034Z,99208.13
2022-11-20T03:06:14.908Z,99212.16
2022-11-20T03:11:19.639Z,99208.25
2022-11-20T03:16:23.776Z,99210.34
2022-11-20T03:21:27.140Z,99211.44
2022-11-20T03:26:32.108Z,99203.25
2022-11-20T03:31:37.930Z,99209.22
2022-11-20T03:36:42.163Z,99223.28
2022-11-20T03:41:46.872Z,99217.78
2022-11-20T03:46:50.063Z,99230.56
2022-11-20T03:51:53.272Z,99226.66
2022-11-20T03:56:58.150Z,99225.53
2022-11-20T04:02:01.404Z,99229.59
2022-11-20T04:07:05.069Z,99230.59
2022-11-20T04:12:09.729Z,99230.00
2022-11-20T04:17:13.220Z,99243.25
2022-11-20T04:22:16.588Z,99252.97
2022-11-20T04:27:21.311Z,99245.53
2022-11-20T04:32:24.576Z,99267.00
2022-11-20T04:37:28.020Z,99275.91
2022-11-20T04:42:32.590Z,99275.66
2022-11-20T04:47:35.950Z,99278.00
2022-11-20T04:52:39.193Z,99279.31
2022-11-20T04:57:43.883Z,99295.19
2022-11-20T05:02:47.069Z,99261.34
2022-11-20T05:07:50.484Z,99285.13
2022-11-20T05:12:55.454Z,99294.53
2022-11-20T05:17:58.871Z,99303.94
2022-11-20T05:23:02.231Z,99306.69
2022-11-20T05:28:08.181Z,99325.53
2022-11-20T05:33:11.580Z,99331.63
2022-11-20T05:38:15.079Z,99332.22
2022-11-20T05:43:19.672Z,99324.31
2022-11-20T05:48:23.304Z,99312.03
2022-11-20T05:53:27.783Z,99340.19
2022-11-20T05:58:33.750Z,99339.38
2022-11-20T06:03:37.176Z,99341.53
2022-11-20T06:08:40.681Z,99345.44
2022-11-20T06:13:45.678Z,99357.69
2022-11-20T06:18:50.157Z,99374.47
2022-11-20T06:23:55.508Z,99372.34
2022-11-20T06:29:00.122Z,99379.66
2022-11-20T06:34:03.749Z,99381.75
2022-11-20T06:39:06.982Z,99389.09
2022-11-20T06:44:11.792Z,99392.50
2022-11-20T06:49:14.888Z,99393.97
2022-11-20T06:54:18.056Z,99395.06
2022-11-20T06:59:23.115Z,99395.25
2022-11-20T07:04:26.702Z,99392.28
2022-11-20T07:09:30.127Z,99378.06
2022-11-20T07:14:34.780Z,99373.09
2022-11-20T07:19:37.955Z,99386.31
2022-11-20T07:24:45.831Z,99385.13
2022-11-20T07:29:51.057Z,99384.94
2022-11-20T07:34:54.159Z,99390.78
2022-11-20T07:39:57.613Z,99400.50
2022-11-20T07:45:02.338Z,99407.72
2022-11-20T07:50:07.428Z,99413.31
2022-11-20T07:55:11.822Z,99406.78
2022-11-20T08:00:18.443Z,99407.16
2022-11-20T08:05:21.646Z,99409.59
2022-11-20T08:10:25.146Z,99401.88
2022-11-20T08:15:29.835Z,99407.91
2022-11-20T08:20:33.337Z,99414.34
2022-11-20T08:25:38.514Z,99420.94
2022-11-20T08:30:43.154Z,99427.91
2022-11-20T08:35:46.390Z,99436.06
2022-11-20T08:41:03.568Z,99431.00
2022-11-20T08:46:08.309Z,99442.88
2022-11-20T08:51:12.089Z,99443.56
2022-11-20T08:56:15.362Z,99451.47
2022-11-20T09:01:20.311Z,99466.53
2022-11-20T09:06:23.389Z,99470.53
2022-11-20T09:11:27.970Z,99480.72
2022-11-20T09:16:32.860Z,99495.44
2022-11-20T09:21:36.055Z,99494.28
2022-11-20T09:26:40.006Z,99510.66
2022-11-20T09:31:44.854Z,99520.59
2022-11-20T09:36:48.199Z,99539.66
2022-11-20T09:42:07.001Z,99529.47
2022-11-20T09:47:19.568Z,99540.09
2022-11-20T09:52:30.257Z,99535.13
2022-11-20T09:57:38.957Z,99537.09
2022-11-20T10:02:49.355Z,99533.53
2022-11-20T10:07:58.090Z,99539.13
2022-11-20T10:13:18.054Z,99536.69
2022-11-20T10:18:35.841Z,99546.28
2022-11-20T10:24:09.635Z,99547.41
2022-11-20T10:29:15.461Z,99554.53
2022-11-20T10:34:29.749Z,99552.44
2022-11-20T10:39:41.030Z,99547.09
2022-11-20T10:45:06.714Z,99556.91
2022-11-20T10:50:22.406Z,99555.13
2022-11-20T10:55:32.518Z,99566.69
2022-11-20T11:00:36.572Z,99559.41
2022-11-20T11:05:45.521Z,99565.16
2022-11-20T11:10:54.073Z,99577.50
2022-11-20T11:15:58.067Z,99580.22
2022-11-20T11:21:05.010Z,99580.59
2022-11-20T11:26:20.296Z,99584.56
2022-11-20T11:31:29.876Z,99585.75
2022-11-20T11:36:35.691Z,99593.16
2022-11-20T11:41:39.394Z,99578.53
2022-11-20T11:46:47.100Z,99587.66
2022-11-20T11:52:04.623Z,99593.16
2022-11-20T11:57:17.120Z,99598.94
2022-11-20T12:02:33.596Z,99596.88
2022-11-20T12:07:47.699Z,99594.94
2022-11-20T12:12:57.157Z,99601.81
2022-11-20T12:18:00.623Z,99598.19
2022-11-20T12:23:16.863Z,99611.09
2022-11-20T12:28:42.394Z,99612.28
2022-11-20T12:34:08.310Z,99608.63
2022-11-20T12:39:43.116Z,99596.47
2022-11-20T12:45:21.062Z,99600.22
2022-11-20T12:50:42.888Z,99610.25
2022-11-20T12:56:08.443Z,99608.31
2022-11-20T13:01:43.946Z,99619.25
2022-11-20T13:06:47.580Z,99613.97
2022-11-20T13:12:00.756Z,99627.91
2022-11-20T13:17:11.980Z,99632.09
2022-11-20T13:22:26.276Z,99632.44
2022-11-20T13:27:32.347Z,99637.56
2022-11-20T13:32:35.807Z,99639.13
2022-11-20T13:37:40.701Z,99643.31
2022-11-20T13:42:47.868Z,99646.19
2022-11-20T13:47:52.041Z,99644.03
2022-11-20T13:53:03.172Z,99654.78
2022-11-20T13:58:34.277Z,99666.16
2022-11-20T14:04:04.414Z,99655.84
2022-11-20T14:09:02.307Z,99662.38
2022-11-20T14:14:17.530Z,99666.63
2022-11-20T14:19:32.740Z,99661.22
2022-11-20T14:24:36.617Z,99680.13
2022-11-20T14:29:42.630Z,99676.91
2022-11-20T14:34:48.545Z,99674.53
2022-11-20T14:39:54.532Z,99696.09
2022-11-20T14:45:00.880Z,99692.81
2022-11-20T14:50:09.771Z,99683.78
2022-11-20T14:55:26.820Z,99696.38
2022-11-20T15:00:33.841Z,99695.66
2022-11-20T15:05:51.924Z,99696.09
2022-11-20T15:10:56.335Z,99696.84
2022-11-20T15:16:02.908Z,99681.56
2022-11-20T15:21:12.770Z,99684.00
2022-11-20T15:26:20.230Z,99688.75
2022-11-20T15:31:26.344Z,99692.28
2022-11-20T15:36:29.779Z,99691.31
2022-11-20T15:41:33.268Z,99691.81
2022-11-20T15:46:43.462Z,99669.59
2022-11-20T15:51:48.952Z,99696.34
2022-11-20T15:56:54.289Z,99685.00
2022-11-20T16:02:00.511Z,99686.94
2022-11-20T16:07:04.189Z,99696.06
2022-11-20T16:12:07.934Z,99703.00
2022-11-20T16:17:13.258Z,99697.97
2022-11-20T16:22:16.843Z,99692.66
2022-11-20T16:27:20.280Z,99705.34
2022-11-20T16:32:25.558Z,99699.22
2022-11-20T16:37:28.899Z,99692.19
2022-11-20T16:42:36.000Z,99680.53
2022-11-20T16:47:40.787Z,99677.25
2022-11-20T16:52:43.694Z,99687.78
2022-11-20T16:57:46.851Z,99696.09
2022-11-20T17:02:51.543Z,99709.06
2022-11-20T17:07:54.996Z,99716.28
2022-11-20T17:12:58.218Z,99730.00
2022-11-20T17:18:04.021Z,99709.44
2022-11-20T17:23:07.214Z,99712.91
2022-11-20T17:28:10.542Z,99704.41
2022-11-20T17:33:15.207Z,99711.19
2022-11-20T17:38:18.751Z,99725.09
2022-11-20T17:43:22.001Z,99722.75
2022-11-20T17:48:29.182Z,99724.09
2022-11-20T17:53:35.820Z,99713.16
2022-11-20T17:58:41.367Z,99720.88
2022-11-20T18:03:46.426Z,99704.25
2022-11-20T18:08:50.763Z,99706.88
2022-11-20T18:14:12.663Z,99702.84
2022-11-20T18:19:19.649Z,99694.41
2022-11-20T18:24:23.731Z,99684.78
2022-11-20T18:29:28.252Z,99688.28
2022-11-20T18:34:33.629Z,99698.66
2022-11-20T18:39:38.664Z,99696.97
2022-11-20T18:44:54.872Z,99710.38
2022-11-20T18:50:01.428Z,99729.63
2022-11-20T18:55:08.161Z,99725.81
2022-11-20T19:00:11.915Z,99723.06
2022-11-20T19:05:17.121Z,99729.69
2022-11-20T19:10:21.580Z,99720.44
2022-11-20T19:15:24.961Z,99711.91
2022-11-20T19:20:29.604Z,99704.16
2022-11-20T19:25:37.874Z,99699.50
2022-11-20T19:30:42.149Z,99698.72
2022-11-20T19:35:46.893Z,99695.19
2022-11-20T19:40:50.344Z,99700.84
2022-11-20T19:45:53.913Z,99694.19
2022-11-20T19:50:58.467Z,99693.84
2022-11-20T19:56:02.623Z,99688.88
2022-11-20T20:01:10.338Z,99690.03
2022-11-20T20:06:16.991Z,99688.94
2022-11-20T20:11:22.009Z,99683.84
2022-11-20T20:16:28.366Z,99676.03
2022-11-20T20:21:34.404Z,99687.75
2022-11-20T20:26:38.022Z,99713.88
2022-11-20T20:31:41.702Z,99712.69
2022-11-20T20:36:46.542Z,99707.16
2022-11-20T20:41:49.756Z,99707.66
2022-11-20T20:46:53.484Z,99692.13
2022-11-20T20:51:58.347Z,99710.38
2022-11-20T20:57:01.683Z,99706.09
2022-11-20T21:02:05.389Z,99705.47
2022-11-20T21:07:11.203Z,99706.59
2022-11-20T21:12:14.784Z,99718.16
2022-11-20T21:17:18.269Z,99726.72
2022-11-20T21:22:23.119Z,99718.63
2022-11-20T21:27:26.634Z,99724.03
2022-11-20T21:32:29.812Z,99729.78
2022-11-20T21:37:39.637Z,99729.41
2022-11-20T21:42:44.126Z,99710.50
2022-11-20T21:47:50.475Z,99715.03
2022-11-20T21:52:55.045Z,99691.94
2022-11-20T21:57:58.610Z,99705.41
2022-11-20T22:03:01.766Z,99721.84
2022-11-20T22:08:07.285Z,99720.56
2022-11-20T22:13:27.887Z,99716.88
2022-11-20T22:18:31.388Z,99679.44
2022-11-20T22:23:36.457Z,99711.06
2022-11-20T22:28:40.520Z,99711.81
2022-11-20T22:33:43.813Z,99704.50
2022-11-20T22:38:49.227Z,99701.63
2022-11-20T22:43:56.426Z,99721.91
2022-11-20T22:49:01.288Z,99714.97
2022-11-20T22:54:06.527Z,99718.16
2022-11-20T22:59:10.125Z,99689.31
2022-11-20T23:04:13.479Z,99694.91
2022-11-20T23:09:18.429Z,99691.22
2022-11-20T23:14:27.455Z,99676.81
2022-11-20T23:19:31.023Z,99679.44
2022-11-20T23:24:35.587Z,99664.00
2022-11-20T23:29:38.776Z,99661.75
2022-11-20T23:34:41.942Z,99665.91
2022-11-20T23:39:46.641Z,99666.19
2022-11-20T23:44:49.979Z,99666.47
2022-11-20T23:49:53.269Z,99647.91
2022-11-20T23:54:57.823Z,99650.38
